Time;durP1;ratioP1;P1;durP2;ratioP2;P2;SDS_P1;SDS_P2;PMS_P1;PMS_P2;Temp;Humidity;BMP_temperature;BMP_pressure;BME280_temperature;BME280_humidity;BME280_pressure;Samples;Min_cycle;Max_cycle;Signal;HPM_P1;HPM_P2
2021/04/08 00:00:27;;;;;;;4.13;2.53;;;3.10;67.40;;;;;;4878860;29;20037;-82
2021/04/08 00:02:52;;;;;;;6.73;2.10;;;3.20;67.20;;;;;;4897136;29;20140;-81
2021/04/08 00:05:18;;;;;;;3.17;1.80;;;3.20;67.30;;;;;;4879708;29;20503;-81
2021/04/08 00:07:44;;;;;;;4.43;2.20;;;3.30;67.10;;;;;;4880087;29;20033;-82
2021/04/08 00:10:11;;;;;;;3.07;1.90;;;3.40;67.10;;;;;;4877879;29;20558;-82
2021/04/08 00:12:37;;;;;;;3.30;1.80;;;3.50;67.10;;;;;;4880277;29;20056;-81
2021/04/08 00:15:14;;;;;;;4.97;2.03;;;3.60;67.00;;;;;;4880969;29;20036;-82
2021/04/08 00:17:40;;;;;;;3.50;1.80;;;3.70;67.10;;;;;;4894726;29;20044;-82
2021/04/08 00:20:12;;;;;;;4.27;1.83;;;3.80;66.70;;;;;;4880327;29;20103;-82
2021/04/08 00:22:37;;;;;;;3.03;1.70;;;3.80;66.60;;;;;;4886792;29;20457;-82
2021/04/08 00:25:04;;;;;;;7.30;2.20;;;3.80;66.60;;;;;;4878260;29;20127;-82
2021/04/08 00:27:30;;;;;;;9.03;1.70;;;3.90;66.60;;;;;;4891772;29;20032;-83
2021/04/08 00:29:55;;;;;;;2.40;1.80;;;3.90;66.40;;;;;;4896846;29;20458;-83
2021/04/08 00:32:21;;;;;;;4.03;1.80;;;3.90;66.30;;;;;;4896427;29;20492;-83
2021/04/08 00:34:47;;;;;;;3.23;1.60;;;3.90;66.10;;;;;;4878659;29;20029;-83
2021/04/08 00:37:12;;;;;;;2.20;1.40;;;3.80;66.10;;;;;;4894847;29;20119;-83
2021/04/08 00:39:38;;;;;;;2.33;1.57;;;3.90;66.40;;;;;;4868689;29;20045;-83
2021/04/08 00:42:06;;;;;;;2.57;1.77;;;4.00;66.20;;;;;;4895169;29;20068;-83
2021/04/08 00:44:32;;;;;;;1.63;1.30;;;4.00;66.30;;;;;;4879547;29;20446;-83
2021/04/08 00:46:58;;;;;;;2.97;1.50;;;4.00;66.00;;;;;;4880164;29;20086;-83
2021/04/08 00:49:23;;;;;;;2.80;1.70;;;4.10;66.10;;;;;;4904442;29;20036;-83
2021/04/08 00:51:49;;;;;;;2.93;1.87;;;4.10;66.00;;;;;;4879524;29;20040;-83
2021/04/08 00:54:15;;;;;;;2.70;1.53;;;4.10;65.90;;;;;;4879888;29;20044;-83
2021/04/08 00:56:41;;;;;;;3.17;1.73;;;4.10;65.90;;;;;;4871983;29;20064;-83
2021/04/08 00:59:07;;;;;;;4.40;1.83;;;4.10;66.00;;;;;;4885127;29;20036;-83
2021/04/08 01:01:33;;;;;;;3.00;2.47;;;4.10;65.90;;;;;;4878991;29;20115;-83
2021/04/08 01:03:59;;;;;;;2.27;1.50;;;4.20;66.00;;;;;;4879779;29;20215;-83
2021/04/08 01:06:24;;;;;;;1.70;1.40;;;4.20;66.00;;;;;;4876730;29;20036;-83
2021/04/08 01:08:50;;;;;;;2.37;1.77;;;4.20;66.10;;;;;;4892547;29;20036;-82
2021/04/08 01:11:16;;;;;;;3.37;1.60;;;4.20;66.00;;;;;;4881708;29;20032;-82
2021/04/08 01:13:42;;;;;;;2.90;2.07;;;4.20;66.00;;;;;;4893947;29;20056;-82
2021/04/08 01:16:15;;;;;;;4.27;2.20;;;4.20;66.60;;;;;;4891494;29;20039;-82
2021/04/08 01:18:58;;;;;;;7.70;3.03;;;4.20;66.00;;;;;;4879611;29;20043;-82
2021/04/08 01:21:23;;;;;;;;;;;4.20;66.10;;;;;;4879625;29;20025;-82
2021/04/08 01:24:23;;;;;;;4.03;2.53;;;4.10;65.80;;;;;;4895243;29;19911;-82
2021/04/08 01:27:28;;;;;;;8.80;3.37;;;4.10;66.00;;;;;;4886766;29;20025;-82
2021/04/08 01:30:05;;;;;;;2.90;2.03;;;4.20;66.00;;;;;;4895758;29;20095;-82
2021/04/08 01:32:34;;;;;;;6.17;2.87;;;4.00;65.80;;;;;;4895807;29;20385;-82
2021/04/08 01:35:02;;;;;;;6.00;2.53;;;4.00;66.00;;;;;;4888753;29;20753;-82
2021/04/08 01:37:32;;;;;;;4.00;2.60;;;4.00;66.30;;;;;;4878462;29;20047;-82
2021/04/08 01:40:00;;;;;;;4.23;2.80;;;4.00;66.40;;;;;;4894603;29;20698;-82
2021/04/08 01:42:27;;;;;;;3.40;2.70;;;3.90;66.30;;;;;;4878899;29;20032;-82
2021/04/08 01:44:56;;;;;;;7.00;2.60;;;3.80;66.90;;;;;;4867596;29;20032;-82
2021/04/08 01:47:25;;;;;;;4.83;2.70;;;3.80;67.00;;;;;;4871894;29;20024;-82
2021/04/08 01:49:52;;;;;;;4.17;2.50;;;3.80;66.90;;;;;;4877442;29;20073;-82
2021/04/08 01:52:21;;;;;;;4.43;2.53;;;3.80;67.00;;;;;;4878626;29;20039;-82
2021/04/08 01:54:55;;;;;;;5.27;2.60;;;3.90;66.90;;;;;;4878971;29;20064;-82
2021/04/08 01:57:24;;;;;;;6.37;3.10;;;3.90;66.80;;;;;;4879437;29;20496;-82
2021/04/08 01:59:50;;;;;;;5.40;2.83;;;4.00;66.60;;;;;;4879779;29;20433;-82
2021/04/08 02:02:17;;;;;;;5.70;3.50;;;3.90;66.40;;;;;;4878328;29;20173;-82
2021/04/08 02:04:45;;;;;;;4.20;3.13;;;3.90;66.60;;;;;;4877687;29;20087;-82
2021/04/08 02:07:12;;;;;;;5.80;3.33;;;3.90;66.70;;;;;;4877284;29;20036;-81
2021/04/08 02:09:39;;;;;;;5.83;3.30;;;3.80;66.80;;;;;;4878924;29;20037;-82
2021/04/08 02:12:08;;;;;;;4.30;3.20;;;3.90;66.80;;;;;;4866019;29;20094;-82
2021/04/08 02:14:39;;;;;;;5.40;2.97;;;3.90;66.70;;;;;;4878641;29;20499;-83
2021/04/08 02:17:06;;;;;;;3.17;2.53;;;4.00;66.90;;;;;;4876402;29;20482;-82
2021/04/08 02:19:33;;;;;;;6.60;2.93;;;4.00;66.90;;;;;;4899702;29;20083;-82
2021/04/08 02:22:01;;;;;;;6.73;3.33;;;4.10;67.00;;;;;;4896366;29;20052;-82
2021/04/08 02:24:27;;;;;;;4.07;2.77;;;4.10;66.60;;;;;;4899893;29;20028;-83
2021/04/08 02:26:53;;;;;;;4.20;3.13;;;4.00;66.60;;;;;;4879370;29;20492;-83
2021/04/08 02:29:21;;;;;;;3.67;2.83;;;4.00;66.80;;;;;;4899389;29;20037;-83
2021/04/08 02:31:48;;;;;;;8.97;3.73;;;4.10;66.90;;;;;;4883635;29;20394;-82
2021/04/08 02:34:15;;;;;;;4.67;3.00;;;4.00;66.70;;;;;;4881835;29;20115;-82
2021/04/08 02:36:41;;;;;;;7.37;3.77;;;4.00;66.90;;;;;;4899005;29;20059;-82
2021/04/08 02:39:09;;;;;;;5.97;3.60;;;4.00;67.10;;;;;;4881942;29;20526;-82
2021/04/08 02:41:46;;;;;;;4.63;3.33;;;3.90;67.20;;;;;;4883601;29;20031;-81
2021/04/08 02:44:13;;;;;;;4.43;2.27;;;3.90;67.30;;;;;;4899409;29;20024;-82
2021/04/08 02:46:38;;;;;;;3.57;1.53;;;4.10;68.30;;;;;;4882427;29;20511;-82
2021/04/08 02:49:05;;;;;;;3.13;2.00;;;4.40;67.00;;;;;;4899444;29;20064;-82
2021/04/08 02:51:55;;;;;;;3.27;2.53;;;4.40;66.30;;;;;;4881790;29;20529;-82
2021/04/08 02:54:39;;;;;;;7.57;4.80;;;4.30;66.10;;;;;;4881806;29;20123;-82
2021/04/08 02:57:09;;;;;;;8.50;4.00;;;4.00;66.40;;;;;;4876245;29;20028;-81
2021/04/08 02:59:47;;;;;;;5.30;3.27;;;4.00;66.60;;;;;;4881786;29;20390;-81
2021/04/08 03:02:16;;;;;;;5.10;3.50;;;3.90;67.00;;;;;;4878474;29;20084;-81
2021/04/08 03:04:49;;;;;;;7.23;3.40;;;3.90;67.10;;;;;;4888433;29;20028;-82
2021/04/08 03:07:35;;;;;;;;;;;3.90;67.00;;;;;;4882262;29;20033;-81
2021/04/08 03:10:05;;;;;;;4.97;3.20;;;3.90;67.00;;;;;;4897351;29;19915;-82
2021/04/08 03:12:33;;;;;;;3.73;2.90;;;3.90;66.80;;;;;;4881614;29;20028;-81
2021/04/08 03:15:01;;;;;;;4.67;2.97;;;3.90;67.00;;;;;;4878121;29;20521;-82
2021/04/08 03:17:31;;;;;;;10.57;3.77;;;3.90;67.10;;;;;;4881079;29;20058;-81
2021/04/08 03:19:59;;;;;;;6.53;4.60;;;4.00;67.00;;;;;;4876575;29;20025;-81
2021/04/08 03:22:27;;;;;;;8.50;4.13;;;4.00;67.00;;;;;;4883249;29;20039;-82
2021/04/08 03:24:56;;;;;;;9.37;4.23;;;3.90;67.00;;;;;;4897160;29;20036;-81
2021/04/08 03:27:28;;;;;;;5.17;3.53;;;3.90;67.20;;;;;;4883537;29;20021;-81
2021/04/08 03:29:55;;;;;;;14.37;7.00;;;3.90;67.30;;;;;;4898913;29;20388;-82
2021/04/08 03:32:21;;;;;;;15.23;6.43;;;3.80;67.40;;;;;;4881144;29;20033;-81
2021/04/08 03:34:49;;;;;;;10.67;3.70;;;3.80;67.40;;;;;;4876388;29;20036;-81
2021/04/08 03:37:16;;;;;;;7.37;3.67;;;3.70;67.40;;;;;;4897959;29;20385;-82
2021/04/08 03:39:42;;;;;;;7.23;4.00;;;3.60;67.80;;;;;;4875877;29;20049;-82
2021/04/08 03:42:15;;;;;;;4.83;2.93;;;3.60;68.50;;;;;;4886105;29;20037;-83
2021/04/08 03:44:41;;;;;;;4.18;2.83;;;3.70;68.50;;;;;;4880086;29;20035;-83
2021/04/08 03:47:07;;;;;;;4.60;3.10;;;3.70;68.40;;;;;;4880743;29;20113;-83
2021/04/08 03:49:34;;;;;;;5.50;3.17;;;3.80;68.30;;;;;;4890524;29;20471;-82
2021/04/08 03:52:02;;;;;;;4.87;2.80;;;3.70;67.90;;;;;;4897475;29;20028;-82
2021/04/08 03:54:29;;;;;;;7.23;3.63;;;3.70;68.20;;;;;;4881640;29;20460;-82
2021/04/08 03:56:57;;;;;;;7.73;4.27;;;3.80;68.30;;;;;;4898563;29;20108;-82
2021/04/08 03:59:24;;;;;;;7.50;3.90;;;3.80;68.20;;;;;;4881439;29;20143;-82
2021/04/08 04:01:51;;;;;;;5.33;3.73;;;3.80;68.10;;;;;;4881246;29;20037;-82
2021/04/08 04:04:18;;;;;;;5.77;3.50;;;3.80;68.10;;;;;;4878820;29;20064;-83
2021/04/08 04:06:50;;;;;;;4.87;3.43;;;3.80;68.00;;;;;;4896889;29;20044;-82
2021/04/08 04:09:16;;;;;;;6.25;3.65;;;3.80;68.00;;;;;;4881128;29;20048;-82
2021/04/08 04:11:49;;;;;;;4.77;3.50;;;3.80;68.30;;;;;;4880583;29;20025;-83
2021/04/08 04:14:16;;;;;;;;;;;3.70;68.50;;;;;;4880072;29;20032;-82
2021/04/08 04:16:44;;;;;;;5.07;3.80;;;3.80;68.30;;;;;;4888542;29;20006;-82
2021/04/08 04:19:11;;;;;;;7.43;4.47;;;3.80;68.30;;;;;;4896120;29;20028;-82
2021/04/08 04:21:36;;;;;;;6.07;3.97;;;3.70;68.00;;;;;;4884493;29;20047;-83
2021/04/08 04:24:04;;;;;;;5.73;3.87;;;3.60;68.40;;;;;;4880999;29;20029;-82
2021/04/08 04:26:30;;;;;;;8.33;4.37;;;3.70;68.60;;;;;;4896645;29;20024;-82
2021/04/08 04:28:56;;;;;;;6.40;3.77;;;3.70;68.60;;;;;;4880784;29;20036;-82
2021/04/08 04:31:22;;;;;;;5.77;4.27;;;3.60;68.80;;;;;;4874872;29;20096;-82
2021/04/08 04:33:48;;;;;;;6.70;4.07;;;3.60;68.60;;;;;;4880017;29;20416;-82
2021/04/08 04:36:13;;;;;;;10.17;5.10;;;3.60;68.90;;;;;;4880368;29;20370;-82
2021/04/08 04:38:39;;;;;;;9.33;5.10;;;3.60;69.10;;;;;;4894706;29;20048;-82
2021/04/08 04:41:05;;;;;;;9.97;5.23;;;3.70;69.00;;;;;;4892751;29;20060;-81
2021/04/08 04:43:31;;;;;;;16.23;5.90;;;3.70;68.80;;;;;;4894197;29;20028;-82
2021/04/08 04:45:57;;;;;;;15.27;6.90;;;3.70;68.90;;;;;;4880504;29;20116;-82
2021/04/08 04:48:23;;;;;;;7.60;5.57;;;3.70;68.90;;;;;;4879618;29;20124;-82
2021/04/08 04:50:53;;;;;;;9.23;6.30;;;3.70;68.90;;;;;;4897208;29;20028;-82
2021/04/08 04:53:19;;;;;;;8.90;6.37;;;3.60;69.20;;;;;;4891389;29;20394;-82
2021/04/08 04:55:45;;;;;;;9.67;6.20;;;3.70;69.30;;;;;;4868169;29;20021;-81
2021/04/08 04:58:11;;;;;;;10.03;6.23;;;3.70;69.20;;;;;;4887665;29;20052;-82
2021/04/08 05:00:37;;;;;;;7.27;5.80;;;3.70;69.20;;;;;;4876404;29;20029;-81
2021/04/08 05:03:03;;;;;;;11.87;6.13;;;3.70;69.50;;;;;;4875242;29;20036;-83
2021/04/08 05:05:29;;;;;;;9.40;6.40;;;3.70;69.40;;;;;;4896404;29;20473;-83
2021/04/08 05:07:54;;;;;;;7.50;5.70;;;3.70;69.40;;;;;;4877932;29;20033;-82
2021/04/08 05:10:20;;;;;;;6.10;4.93;;;3.70;69.50;;;;;;4878495;29;20037;-82
2021/04/08 05:12:46;;;;;;;8.80;5.60;;;3.70;69.50;;;;;;4880084;29;20191;-82
2021/04/08 05:15:12;;;;;;;8.33;5.07;;;3.80;69.60;;;;;;4899739;29;20510;-82
2021/04/08 05:17:38;;;;;;;9.00;4.77;;;3.80;69.40;;;;;;4895887;29;20032;-82
2021/04/08 05:20:05;;;;;;;7.17;4.07;;;3.90;69.20;;;;;;4879665;29;20037;-82
2021/04/08 05:22:31;;;;;;;6.00;4.20;;;3.90;69.20;;;;;;4880183;29;20025;-81
2021/04/08 05:24:57;;;;;;;7.00;4.50;;;3.90;68.90;;;;;;4879538;29;20061;-81
2021/04/08 05:27:22;;;;;;;11.00;4.63;;;3.80;68.90;;;;;;4879630;29;20128;-82
2021/04/08 05:29:48;;;;;;;13.13;6.67;;;3.80;69.00;;;;;;4890348;29;20032;-82
2021/04/08 05:32:14;;;;;;;10.77;5.87;;;3.80;69.00;;;;;;4880530;29;20029;-82
2021/04/08 05:34:39;;;;;;;7.67;4.87;;;3.80;69.00;;;;;;4880047;29;20556;-82
2021/04/08 05:37:05;;;;;;;12.63;5.23;;;3.90;69.10;;;;;;4878889;29;20036;-81
2021/04/08 05:39:31;;;;;;;7.33;4.77;;;4.00;69.00;;;;;;4878311;29;20413;-81
2021/04/08 05:41:57;;;;;;;5.83;3.97;;;3.90;68.60;;;;;;4877566;29;20093;-81
2021/04/08 05:44:22;;;;;;;6.37;4.33;;;3.90;68.60;;;;;;4877085;29;20064;-82
2021/04/08 05:46:48;;;;;;;9.23;4.80;;;3.90;68.80;;;;;;4877739;29;20037;-81
2021/04/08 05:49:14;;;;;;;10.87;5.40;;;3.90;68.80;;;;;;4875686;29;20120;-81
2021/04/08 05:51:40;;;;;;;29.67;7.67;;;3.90;68.80;;;;;;4888465;29;20116;-82
2021/04/08 05:54:07;;;;;;;13.33;6.10;;;4.00;68.80;;;;;;4882132;29;20033;-82
2021/04/08 05:56:33;;;;;;;7.23;5.30;;;4.00;68.60;;;;;;4876193;29;20041;-81
2021/04/08 05:58:59;;;;;;;7.97;5.37;;;4.10;68.60;;;;;;4886927;29;20037;-81
2021/04/08 06:01:25;;;;;;;8.70;6.37;;;4.10;68.90;;;;;;4869161;29;20032;-82
2021/04/08 06:03:52;;;;;;;9.97;6.20;;;4.20;68.70;;;;;;4879229;29;20025;-82
2021/04/08 06:06:18;;;;;;;13.30;6.23;;;4.30;68.60;;;;;;4879433;29;20074;-81
2021/04/08 06:08:44;;;;;;;11.03;7.13;;;4.40;68.20;;;;;;4880444;29;20056;-81
2021/04/08 06:11:09;;;;;;;27.23;7.73;;;4.60;68.10;;;;;;4863289;29;20029;-81
2021/04/08 06:13:35;;;;;;;11.07;6.60;;;4.60;67.70;;;;;;4878211;29;20363;-81
2021/04/08 06:16:01;;;;;;;13.73;6.70;;;4.60;67.50;;;;;;4895947;29;20029;-81
2021/04/08 06:18:27;;;;;;;8.53;5.20;;;4.70;67.50;;;;;;4881037;29;20504;-82
2021/04/08 06:20:53;;;;;;;12.00;5.80;;;4.70;67.30;;;;;;4880348;29;20028;-82
2021/04/08 06:23:19;;;;;;;14.17;6.77;;;4.70;66.80;;;;;;4881588;29;20090;-81
2021/04/08 06:25:44;;;;;;;11.83;6.50;;;4.60;67.00;;;;;;4902189;29;20025;-81
2021/04/08 06:28:12;;;;;;;11.80;6.53;;;4.60;67.10;;;;;;4896203;29;20036;-81
2021/04/08 06:30:38;;;;;;;11.03;6.43;;;4.50;67.10;;;;;;4879859;29;20401;-81
2021/04/08 06:33:06;;;;;;;16.27;5.53;;;4.50;67.00;;;;;;4879463;29;20043;-81
2021/04/08 06:35:32;;;;;;;29.73;10.30;;;4.50;67.00;;;;;;4879942;29;20397;-81
2021/04/08 06:37:58;;;;;;;17.93;7.30;;;4.60;67.20;;;;;;4877231;29;20037;-82
2021/04/08 06:40:23;;;;;;;15.00;6.07;;;4.70;67.10;;;;;;4895564;29;20122;-82
2021/04/08 06:42:53;;;;;;;8.47;4.37;;;4.70;66.80;;;;;;4882838;29;20469;-81
2021/04/08 06:45:24;;;;;;;5.90;3.83;;;4.80;66.40;;;;;;4874919;29;20067;-82
2021/04/08 06:48:00;;;;;;;5.70;4.07;;;4.70;66.30;;;;;;4879908;29;20028;-82
2021/04/08 06:50:32;;;;;;;8.53;4.10;;;4.70;66.10;;;;;;4898332;29;20028;-82
2021/04/08 06:53:00;;;;;;;12.93;5.35;;;4.60;66.30;;;;;;4882235;29;20550;-82
2021/04/08 06:55:27;;;;;;;7.40;4.77;;;4.70;66.40;;;;;;4898547;29;20055;-82
2021/04/08 06:57:54;;;;;;;11.83;6.37;;;4.80;66.40;;;;;;4882925;29;20032;-82
2021/04/08 07:00:20;;;;;;;12.63;6.47;;;4.80;66.00;;;;;;4882163;29;20037;-82
2021/04/08 07:02:46;;;;;;;15.63;6.97;;;4.90;65.90;;;;;;4898811;29;20032;-82
2021/04/08 07:05:12;;;;;;;8.53;5.37;;;4.90;65.70;;;;;;4877513;29;20080;-82
2021/04/08 07:07:38;;;;;;;14.07;5.97;;;5.00;65.60;;;;;;4869152;29;20051;-82
2021/04/08 07:10:05;;;;;;;9.93;4.83;;;5.10;65.40;;;;;;4884879;29;20033;-82
2021/04/08 07:12:31;;;;;;;9.53;6.10;;;5.20;65.40;;;;;;4899361;29;20157;-82
2021/04/08 07:14:57;;;;;;;7.90;4.73;;;5.30;65.20;;;;;;4898804;29;20033;-82
2021/04/08 07:17:23;;;;;;;8.50;5.10;;;5.30;65.00;;;;;;4872531;29;20032;-82
2021/04/08 07:19:48;;;;;;;11.43;6.33;;;5.30;64.70;;;;;;4881994;29;20149;-82
2021/04/08 07:22:16;;;;;;;8.90;5.37;;;5.40;64.80;;;;;;4876081;29;20073;-82
2021/04/08 07:24:56;;;;;;;13.60;7.17;;;5.40;64.40;;;;;;4897651;29;20067;-82
2021/04/08 07:27:23;;;;;;;15.97;8.00;;;5.40;64.20;;;;;;4894588;29;20119;-82
2021/04/08 07:30:00;;;;;;;8.00;4.30;;;5.40;64.30;;;;;;4898778;29;20508;-82
2021/04/08 07:32:36;;;;;;;8.70;4.83;;;5.50;64.10;;;;;;4880939;29;20647;-82
2021/04/08 07:35:21;;;;;;;14.47;7.87;;;5.60;64.00;;;;;;4872154;29;20058;-81
2021/04/08 07:37:57;;;;;;;8.13;5.93;;;5.60;63.50;;;;;;4894511;29;20036;-82
2021/04/08 07:40:25;;;;;;;8.07;5.20;;;5.60;63.40;;;;;;4881125;29;20041;-82
2021/04/08 07:42:52;;;;;;;9.33;6.47;;;5.60;64.00;;;;;;4899282;29;20099;-82
2021/04/08 07:45:34;;;;;;;11.97;5.57;;;5.70;63.40;;;;;;4898325;29;20040;-81
2021/04/08 07:48:02;;;;;;;7.93;4.88;;;5.80;63.60;;;;;;4881383;29;20031;-82
2021/04/08 07:50:30;;;;;;;8.00;5.00;;;5.80;63.20;;;;;;4898172;29;20044;-82
2021/04/08 07:52:57;;;;;;;6.63;5.20;;;5.80;63.20;;;;;;4872155;29;20037;-82
2021/04/08 07:55:35;;;;;;;7.13;5.27;;;5.90;63.20;;;;;;4908622;29;20111;-82
2021/04/08 07:58:13;;;;;;;5.90;4.50;;;5.90;63.00;;;;;;4883544;29;20048;-81
2021/04/08 08:00:54;;;;;;;7.60;4.43;;;6.00;62.80;;;;;;4878882;29;20025;-81
2021/04/08 08:03:23;;;;;;;6.03;4.03;;;5.90;62.40;;;;;;4881326;29;20033;-81
2021/04/08 08:05:51;;;;;;;7.27;4.20;;;5.90;62.40;;;;;;4881531;29;20461;-82
2021/04/08 08:08:19;;;;;;;7.63;4.97;;;6.00;63.10;;;;;;4881741;29;20029;-81
2021/04/08 08:11:13;;;;;;;10.03;5.73;;;6.10;62.50;;;;;;4896166;29;20047;-81
2021/04/08 08:13:47;;;;;;;10.00;5.87;;;6.20;62.30;;;;;;4880571;29;20035;-81
2021/04/08 08:16:20;;;;;;;11.10;5.33;;;6.20;62.10;;;;;;4880076;29;20039;-82
2021/04/08 08:18:46;;;;;;;9.17;4.93;;;6.20;61.60;;;;;;4892286;29;20043;-81
2021/04/08 08:21:18;;;;;;;7.97;4.90;;;6.30;61.70;;;;;;4881712;29;20056;-81
2021/04/08 08:23:46;;;;;;;8.03;4.60;;;6.30;61.40;;;;;;4889007;29;20453;-81
2021/04/08 08:26:38;;;;;;;7.60;4.70;;;6.30;61.30;;;;;;4878435;29;20463;-82
2021/04/08 08:29:09;;;;;;;6.87;4.30;;;6.40;61.10;;;;;;4887854;29;20040;-82
2021/04/08 08:31:41;;;;;;;7.33;4.57;;;6.50;60.80;;;;;;4895362;29;20413;-82
2021/04/08 08:34:09;;;;;;;8.97;4.20;;;6.60;60.50;;;;;;4896710;29;20024;-82
2021/04/08 08:37:04;;;;;;;8.13;5.20;;;6.70;60.30;;;;;;5061623;28;20467;-81
2021/04/08 08:39:40;;;;;;;6.17;4.23;;;6.80;59.90;;;;;;5065178;28;20037;-82
2021/04/08 08:42:08;;;;;;;6.33;4.07;;;6.90;59.70;;;;;;5048804;28;20053;-82
2021/04/08 08:44:35;;;;;;;10.23;6.03;;;7.00;59.40;;;;;;5047643;28;20029;-82
2021/04/08 08:47:14;;;;;;;7.97;5.23;;;7.00;59.20;;;;;;5049334;28;20036;-81
2021/04/08 08:50:12;;;;;;;8.37;5.30;;;7.10;59.00;;;;;;5048794;28;20029;-81
2021/04/08 08:52:40;;;;;;;9.77;5.10;;;7.40;58.90;;;;;;5015644;28;20044;-82
2021/04/08 08:55:19;;;;;;;6.80;5.67;;;7.50;58.70;;;;;;5039184;28;20107;-82
2021/04/08 08:57:55;;;;;;;9.40;5.67;;;7.70;58.40;;;;;;5043491;28;20029;-82
2021/04/08 09:00:24;;;;;;;8.83;5.20;;;7.80;58.40;;;;;;5049582;28;20066;-82
2021/04/08 09:02:50;;;;;;;7.33;5.07;;;8.00;58.10;;;;;;5048691;28;20473;-82
2021/04/08 09:05:19;;;;;;;9.87;5.83;;;8.10;58.10;;;;;;5048068;28;20034;-82
2021/04/08 09:07:49;;;;;;;11.07;5.40;;;8.30;58.00;;;;;;5058557;28;20844;-82
2021/04/08 09:10:31;;;;;;;10.13;5.97;;;8.30;57.90;;;;;;5050802;28;20060;-82
2021/04/08 09:12:57;;;;;;;9.83;5.97;;;8.30;57.80;;;;;;5046128;28;20029;-82
2021/04/08 09:15:23;;;;;;;8.03;4.60;;;8.20;57.80;;;;;;5063846;28;20124;-82
2021/04/08 09:17:59;;;;;;;9.73;3.87;;;8.30;57.60;;;;;;5042383;28;20614;-82
2021/04/08 09:20:26;;;;;;;7.90;3.77;;;8.30;57.20;;;;;;5036526;28;20040;-81
2021/04/08 09:22:56;;;;;;;3.97;2.93;;;8.30;57.00;;;;;;5044279;28;20044;-82
2021/04/08 09:25:33;;;;;;;6.57;3.80;;;8.30;56.70;;;;;;5041780;28;20029;-82
2021/04/08 09:28:03;;;;;;;5.23;2.83;;;8.40;56.60;;;;;;5039005;28;20374;-82
2021/04/08 09:30:44;;;;;;;9.03;2.70;;;8.40;55.70;;;;;;5040548;28;20453;-81
2021/04/08 09:33:11;;;;;;;6.63;3.13;;;8.60;54.90;;;;;;5047944;28;20034;-82
2021/04/08 09:35:37;;;;;;;6.90;2.83;;;8.80;54.80;;;;;;5047957;28;20049;-82
2021/04/08 09:38:03;;;;;;;4.93;2.70;;;8.90;54.40;;;;;;5039963;28;20061;-82
2021/04/08 09:40:37;;;;;;;6.50;2.83;;;9.00;54.10;;;;;;5033830;28;20068;-83
2021/04/08 09:43:20;;;;;;;6.87;2.53;;;9.00;53.80;;;;;;5044614;28;20573;-82
2021/04/08 09:45:57;;;;;;;5.03;1.93;;;9.00;53.10;;;;;;5047051;28;20041;-83
2021/04/08 09:48:25;;;;;;;2.97;1.67;;;9.10;53.00;;;;;;5033247;28;20034;-82
2021/04/08 09:50:59;;;;;;;4.50;2.50;;;9.10;53.20;;;;;;5034141;28;20034;-82
2021/04/08 09:53:39;;;;;;;6.60;2.73;;;9.10;53.20;;;;;;5031916;28;20033;-82
2021/04/08 09:56:06;;;;;;;9.63;2.63;;;9.30;53.30;;;;;;5032074;28;20029;-83
2021/04/08 09:58:38;;;;;;;5.13;2.63;;;9.50;52.90;;;;;;5035678;28;20030;-82
2021/04/08 10:01:09;;;;;;;3.07;2.10;;;9.60;52.50;;;;;;5023715;28;20021;-83
2021/04/08 10:03:41;;;;;;;7.87;2.87;;;9.70;51.40;;;;;;5034417;28;20030;-82
2021/04/08 10:06:21;;;;;;;6.57;2.73;;;9.60;51.30;;;;;;5030260;28;20026;-83
2021/04/08 10:08:47;;;;;;;4.93;2.50;;;9.90;52.30;;;;;;5032993;28;20033;-83
2021/04/08 10:11:15;;;;;;;8.93;1.73;;;10.00;52.20;;;;;;5033473;28;20087;-82
2021/04/08 10:13:41;;;;;;;4.87;1.70;;;10.20;52.00;;;;;;5034411;28;20026;-83
2021/04/08 10:16:10;;;;;;;6.83;1.87;;;10.40;51.50;;;;;;5032708;28;20061;-83
2021/04/08 10:18:40;;;;;;;3.87;1.70;;;10.50;51.10;;;;;;5035058;28;20031;-83
2021/04/08 10:21:20;;;;;;;3.77;1.63;;;10.60;50.60;;;;;;5033005;28;20029;-83
2021/04/08 10:23:50;;;;;;;3.37;1.67;;;10.80;50.20;;;;;;5023990;28;20033;-82
2021/04/08 10:26:21;;;;;;;5.20;1.67;;;11.00;49.80;;;;;;5027889;28;20037;-83
2021/04/08 10:28:54;;;;;;;3.17;1.40;;;11.20;49.40;;;;;;5033185;28;20033;-82
2021/04/08 10:31:31;;;;;;;5.70;1.50;;;11.40;49.10;;;;;;5033906;28;20120;-83
2021/04/08 10:34:04;;;;;;;3.67;1.30;;;11.70;47.90;;;;;;5032193;28;20030;-82
2021/04/08 10:36:39;;;;;;;6.00;1.83;;;11.70;46.50;;;;;;5049634;28;20050;-82
2021/04/08 10:39:09;;;;;;;5.50;2.40;;;11.70;47.00;;;;;;5030903;28;20112;-83
2021/04/08 10:41:35;;;;;;;8.10;2.30;;;11.80;47.50;;;;;;5032341;28;20939;-83
2021/04/08 10:44:23;;;;;;;4.50;2.20;;;11.90;47.40;;;;;;5032362;28;20033;-83
2021/04/08 10:46:51;;;;;;;4.10;2.20;;;11.90;46.90;;;;;;5029781;28;20397;-82
2021/04/08 10:49:45;;;;;;;4.73;2.77;;;12.00;47.20;;;;;;5025905;28;20052;-82
2021/04/08 10:52:13;;;;;;;6.37;2.87;;;11.90;46.90;;;;;;5010696;28;20030;-82
2021/04/08 10:54:40;;;;;;;7.10;3.30;;;12.00;47.00;;;;;;5023759;28;20034;-82
2021/04/08 10:57:07;;;;;;;4.83;3.30;;;12.10;47.20;;;;;;5034184;28;20372;-82
2021/04/08 10:59:34;;;;;;;7.57;2.40;;;12.30;47.00;;;;;;5032432;28;20017;-83
2021/04/08 11:02:03;;;;;;;3.90;2.27;;;12.50;46.80;;;;;;5033962;28;20087;-82
2021/04/08 11:04:36;;;;;;;3.50;2.57;;;12.60;46.40;;;;;;5033565;28;20116;-82
2021/04/08 11:07:02;;;;;;;6.80;2.60;;;12.70;46.20;;;;;;5031433;28;20025;-83
2021/04/08 11:09:29;;;;;;;7.57;2.30;;;12.80;46.30;;;;;;5031660;28;20064;-83
2021/04/08 11:11:56;;;;;;;5.13;2.30;;;12.90;45.70;;;;;;5032785;28;20029;-83
2021/04/08 11:14:27;;;;;;;4.37;2.77;;;13.00;45.60;;;;;;5032582;28;20053;-83
2021/04/08 11:16:57;;;;;;;9.63;5.03;;;13.10;45.50;;;;;;5019560;28;20113;-83
2021/04/08 11:19:23;;;;;;;7.27;3.27;;;13.10;45.20;;;;;;5032957;28;20041;-82
2021/04/08 11:21:50;;;;;;;6.90;2.80;;;13.00;44.80;;;;;;5032131;28;20021;-83
2021/04/08 11:24:16;;;;;;;5.27;2.07;;;12.90;44.30;;;;;;5028934;28;20095;-83
2021/04/08 11:26:51;;;;;;;3.60;2.70;;;12.80;44.20;;;;;;5032844;28;20083;-82
2021/04/08 11:29:23;;;;;;;5.03;2.97;;;12.90;44.50;;;;;;5033566;28;20029;-82
2021/04/08 11:32:04;;;;;;;5.57;3.10;;;13.00;44.40;;;;;;5032343;28;20747;-82
2021/04/08 11:34:43;;;;;;;3.57;2.73;;;13.10;44.80;;;;;;5032455;28;20026;-82
2021/04/08 11:37:10;;;;;;;8.27;2.70;;;13.00;44.50;;;;;;5028330;28;20026;-84
2021/04/08 11:39:36;;;;;;;4.90;2.70;;;13.10;44.80;;;;;;5024795;28;20440;-83
2021/04/08 11:42:22;;;;;;;4.73;2.53;;;13.20;44.80;;;;;;5015225;28;20034;-83
2021/04/08 11:44:51;;;;;;;7.30;2.70;;;13.20;43.90;;;;;;5023095;28;20033;-82
2021/04/08 11:47:19;;;;;;;5.53;2.17;;;13.00;44.20;;;;;;5032320;28;20116;-82
2021/04/08 11:49:48;;;;;;;7.13;2.60;;;13.10;44.20;;;;;;5032673;28;20082;-82
2021/04/08 11:52:16;;;;;;;3.87;2.50;;;13.20;43.30;;;;;;5029499;28;20032;-83
2021/04/08 11:54:57;;;;;;;10.40;2.30;;;13.20;42.60;;;;;;5030675;28;20095;-82
2021/04/08 11:57:24;;;;;;;2.50;1.90;;;13.30;42.60;;;;;;5024150;28;20021;-83
2021/04/08 11:59:50;;;;;;;4.90;2.13;;;13.30;42.30;;;;;;5033348;28;20029;-82
2021/04/08 12:02:32;;;;;;;4.27;1.80;;;13.30;42.40;;;;;;5032384;28;20028;-82
2021/04/08 12:05:00;;;;;;;4.95;1.95;;;13.50;41.20;;;;;;5012984;28;20030;-82
2021/04/08 12:07:26;;;;;;;3.37;1.83;;;13.60;41.30;;;;;;5022646;28;20033;-82
2021/04/08 12:09:53;;;;;;;3.27;1.80;;;13.70;41.00;;;;;;5022107;28;20025;-83
2021/04/08 12:12:30;;;;;;;6.23;2.03;;;13.70;41.00;;;;;;5017433;28;20022;-82
2021/04/08 12:15:04;;;;;;;4.60;2.60;;;13.70;40.30;;;;;;5012784;28;20032;-83
2021/04/08 12:17:32;;;;;;;3.73;2.20;;;13.70;39.80;;;;;;5012366;28;20022;-82
2021/04/08 12:20:18;;;;;;;4.67;2.30;;;13.70;39.90;;;;;;5028637;28;20112;-83
2021/04/08 12:22:44;;;;;;;2.83;1.80;;;13.80;39.50;;;;;;5031795;28;20060;-82
2021/04/08 12:25:17;;;;;;;5.60;2.40;;;13.80;39.70;;;;;;5031425;28;20424;-83
2021/04/08 12:27:44;;;;;;;4.57;2.30;;;13.90;39.50;;;;;;5032932;28;20109;-82
2021/04/08 12:30:13;;;;;;;3.60;1.83;;;13.80;39.20;;;;;;5032057;28;20053;-82
2021/04/08 12:32:39;;;;;;;5.50;2.00;;;13.70;39.00;;;;;;5031471;28;20034;-82
2021/04/08 12:35:07;;;;;;;3.00;1.63;;;13.70;39.00;;;;;;5032958;28;20067;-82
2021/04/08 12:37:33;;;;;;;2.63;1.87;;;13.70;38.60;;;;;;5031849;28;20026;-83
2021/04/08 12:39:58;;;;;;;4.77;1.47;;;13.60;38.70;;;;;;5034052;28;20021;-82
2021/04/08 12:42:25;;;;;;;3.90;1.73;;;13.60;38.90;;;;;;5032624;28;20036;-83
2021/04/08 12:44:51;;;;;;;2.73;1.10;;;13.50;38.90;;;;;;5018203;28;20029;-83
2021/04/08 12:47:19;;;;;;;5.20;1.73;;;13.60;39.10;;;;;;5031151;28;21091;-83
2021/04/08 12:49:44;;;;;;;3.27;1.77;;;13.70;38.30;;;;;;5028816;28;20048;-82
2021/04/08 12:52:10;;;;;;;5.63;2.50;;;13.50;38.70;;;;;;5023654;28;20033;-83
2021/04/08 12:54:36;;;;;;;5.30;2.43;;;13.60;38.60;;;;;;5030822;28;20056;-82
2021/04/08 12:57:03;;;;;;;4.57;2.20;;;13.70;38.80;;;;;;5030241;28;20032;-80
2021/04/08 12:59:29;;;;;;;5.27;2.23;;;13.60;38.80;;;;;;5028915;28;20021;-80
2021/04/08 13:01:55;;;;;;;4.07;2.80;;;13.70;39.10;;;;;;5031121;28;20460;-80
2021/04/08 13:04:21;;;;;;;4.33;2.00;;;13.80;39.40;;;;;;5030748;28;20049;-79